Time,TemperatureF,DewpointF,PressureIn,WindDirection,WindDirectionDegrees,WindSpeedMPH,WindSpeedGustMPH,Humidity,HourlyPrecipIn,Conditions,Clouds,dailyrainin,SoftwareType,DateUTC
2013-05-19 06:44:00,-999.9,-99.9,30.29,North,32767,-999.0,0.0,255,-99.99,,,0.00,Wunderground v.1.15,2013-05-19 10:44:00,
2013-05-19 06:49:00,-999.9,-99.9,30.29,North,32767,-999.0,0.0,255,-99.99,,,0.00,Wunderground v.1.15,2013-05-19 10:49:00,
2013-05-19 06:59:00,51.0,-99.9,30.29,SSW,195,0.0,0.0,255,0.00,,,0.00,Wunderground v.1.15,2013-05-19 10:59:00,
2013-05-19 07:04:00,51.0,48.2,30.30,SSW,195,0.0,0.0,90,0.00,,,0.00,Wunderground v.1.15,2013-05-19 11:04:00,
2013-05-19 07:14:00,51.1,48.3,30.30,SSW,195,0.0,0.0,90,0.00,,,0.00,Wunderground v.1.15,2013-05-19 11:14:00,
2013-05-19 07:19:00,51.1,48.3,30.30,SSW,195,0.0,0.0,90,0.00,,,0.00,Wunderground v.1.15,2013-05-19 11:19:00,
2013-05-19 07:24:00,51.3,48.5,30.30,SSW,195,0.0,0.0,90,0.00,,,0.00,Wunderground v.1.15,2013-05-19 11:24:00,
2013-05-19 07:29:00,51.4,48.6,30.30,SSW,195,0.0,0.0,90,0.00,,,0.00,Wunderground v.1.15,2013-05-19 11:29:00,
2013-05-19 07:34:00,51.4,48.6,30.30,SSW,195,0.0,0.0,90,0.00,,,0.00,Wunderground v.1.15,2013-05-19 11:34:00,
2013-05-19 07:44:00,51.7,48.9,30.30,SSW,195,0.0,0.0,90,0.00,,,0.00,Wunderground v.1.15,2013-05-19 11:44:00,
2013-05-19 07:49:00,51.7,48.6,30.31,SSW,195,0.0,0.0,89,0.00,,,0.00,Wunderground v.1.15,2013-05-19 11:49:00,
2013-05-19 07:54:00,52.0,48.9,30.31,SSW,195,0.0,0.0,89,0.00,,,0.00,Wunderground v.1.15,2013-05-19 11:54:00,
2013-05-19 07:59:00,52.2,49.1,30.31,SSW,195,0.0,0.0,89,0.00,,,0.00,Wunderground v.1.15,2013-05-19 11:59:00,
2013-05-19 08:04:00,52.2,49.1,30.31,SSW,195,0.0,0.0,89,0.00,,,0.00,Wunderground v.1.15,2013-05-19 12:04:00,
2013-05-19 08:14:00,52.3,48.9,30.31,SSW,195,0.0,0.0,88,0.00,,,0.00,Wunderground v.1.15,2013-05-19 12:14:00,
2013-05-19 08:19:00,52.3,48.9,30.31,SSW,195,0.0,0.0,88,0.00,,,0.00,Wunderground v.1.15,2013-05-19 12:19:00,
2013-05-19 08:24:00,51.9,48.5,30.31,SSW,195,0.0,0.0,88,0.00,,,0.00,Wunderground v.1.15,2013-05-19 12:24:00,
2013-05-19 08:29:00,52.3,48.9,30.32,SSW,195,0.0,0.0,88,0.00,,,0.00,Wunderground v.1.15,2013-05-19 12:29:00,
2013-05-19 08:34:00,52.3,48.9,30.32,SSW,195,0.0,0.0,88,0.00,,,0.00,Wunderground v.1.15,2013-05-19 12:34:00,
2013-05-19 08:39:00,-999.9,-99.9,30.32,North,32767,-999.0,0.0,255,-99.99,,,0.00,Wunderground v.1.15,2013-05-19 12:39:00,
2013-05-19 08:49:00,-999.9,-99.9,30.31,North,32767,-999.0,0.0,255,-99.99,,,0.00,Wunderground v.1.15,2013-05-19 12:49:00,
2013-05-19 08:54:00,-999.9,-99.9,30.31,North,32767,-999.0,0.0,255,-99.99,,,0.00,Wunderground v.1.15,2013-05-19 12:54:00,
2013-05-19 08:59:00,-999.9,-99.9,30.31,North,32767,-999.0,0.0,255,-99.99,,,0.00,Wunderground v.1.15,2013-05-19 12:59:00,
2013-05-19 09:04:00,-999.9,-99.9,30.31,North,32767,-999.0,0.0,255,-99.99,,,0.00,Wunderground v.1.15,2013-05-19 13:04:00,
2013-05-19 09:09:00,-999.9,-99.9,30.31,South,189,0.0,0.0,82,0.00,,,0.00,Wunderground v.1.15,2013-05-19 13:09:00,
2013-05-19 09:19:00,56.6,50.8,30.32,SW,233,0.0,0.0,81,0.00,,,0.00,Wunderground v.1.15,2013-05-19 13:19:00,
2013-05-19 09:24:00,58.1,52.0,30.32,SW,233,0.0,0.0,80,0.00,,,0.00,Wunderground v.1.15,2013-05-19 13:24:00,
2013-05-19 09:29:00,57.0,49.5,30.32,SW,224,0.0,0.0,76,0.00,,,0.00,Wunderground v.1.15,2013-05-19 13:29:00,
2013-05-19 09:34:00,57.2,50.7,30.32,SW,224,0.0,0.0,79,0.00,,,0.00,Wunderground v.1.15,2013-05-19 13:34:00,
2013-05-19 09:39:00,57.0,50.5,30.32,SW,224,0.0,0.0,79,0.00,,,0.00,Wunderground v.1.15,2013-05-19 13:39:00,
2013-05-19 09:44:00,57.0,50.2,30.32,SSE,164,0.0,0.0,78,0.00,,,0.00,Wunderground v.1.15,2013-05-19 13:44:00,
2013-05-19 09:54:00,56.6,50.5,30.32,SSE,162,0.0,0.0,80,0.00,,,0.00,Wunderground v.1.15,2013-05-19 13:54:00,
2013-05-19 10:00:00,57.0,50.9,30.31,SSE,162,0.0,0.0,80,0.00,,,0.00,Wunderground v.1.15,2013-05-19 14:00:00,
2013-05-19 10:09:00,58.6,52.4,30.31,South,184,0.0,0.0,80,0.00,,,0.00,Wunderground v.1.15,2013-05-19 14:09:00,
2013-05-19 10:14:00,58.6,52.4,30.31,South,184,0.0,0.0,80,0.00,,,0.00,Wunderground v.1.15,2013-05-19 14:14:00,
2013-05-19 10:19:00,59.3,53.1,30.31,South,181,0.0,0.0,80,0.00,,,0.00,Wunderground v.1.15,2013-05-19 14:19:00,
2013-05-19 10:29:00,60.2,50.8,30.31,South,178,0.0,1.0,71,0.00,,,0.00,Wunderground v.1.15,2013-05-19 14:29:00,
2013-05-19 10:34:00,60.4,51.0,30.31,SSE,162,0.0,1.0,71,0.00,,,0.00,Wunderground v.1.15,2013-05-19 14:34:00,
2013-05-19 10:39:00,60.4,52.1,30.31,SSE,161,0.0,0.0,74,0.00,,,0.00,Wunderground v.1.15,2013-05-19 14:39:00,
2013-05-19 10:49:00,60.4,51.0,30.31,SW,217,1.0,1.0,71,0.00,,,0.00,Wunderground v.1.15,2013-05-19 14:49:00,
2013-05-19 10:54:00,61.3,51.4,30.31,South,185,0.0,1.0,70,0.00,,,0.00,Wunderground v.1.15,2013-05-19 14:54:00,
2013-05-19 10:59:00,61.3,52.9,30.31,South,185,0.0,0.0,74,0.00,,,0.00,Wunderground v.1.15,2013-05-19 14:59:00,
2013-05-19 11:09:00,62.3,52.4,30.31,WNW,285,0.0,0.0,70,0.00,,,0.00,Wunderground v.1.15,2013-05-19 15:09:00,
2013-05-19 11:14:00,62.9,51.4,30.31,SSE,161,0.0,0.0,66,0.00,,,0.00,Wunderground v.1.15,2013-05-19 15:14:00,
2013-05-19 11:19:00,62.1,51.0,30.31,SSW,208,0.0,0.0,67,0.00,,,0.00,Wunderground v.1.15,2013-05-19 15:19:00,
2013-05-19 11:24:00,62.1,51.8,30.31,SE,145,0.0,0.0,69,0.00,,,0.00,Wunderground v.1.15,2013-05-19 15:24:00,
2013-05-19 11:34:00,63.1,52.4,30.30,SSW,208,0.0,0.0,68,0.00,,,0.00,Wunderground v.1.15,2013-05-19 15:34:00,
2013-05-19 11:39:00,63.4,53.0,30.30,South,188,1.0,1.0,69,0.00,,,0.00,Wunderground v.1.15,2013-05-19 15:39:00,
2013-05-19 11:44:00,63.5,52.7,30.30,SSW,209,0.0,1.0,68,0.00,,,0.00,Wunderground v.1.15,2013-05-19 15:44:00,
2013-05-19 11:49:00,63.9,53.5,30.30,SSE,164,0.0,0.0,69,0.00,,,0.00,Wunderground v.1.15,2013-05-19 15:49:00,
2013-05-19 11:54:00,64.5,54.9,30.30,SW,226,0.0,0.0,71,0.00,,,0.00,Wunderground v.1.15,2013-05-19 15:54:00,
2013-05-19 11:59:00,64.8,52.8,30.29,WSW,248,0.0,1.0,65,0.00,,,0.00,Wunderground v.1.15,2013-05-19 15:59:00,
2013-05-19 12:09:00,63.9,52.3,30.29,NW,325,1.0,1.0,66,0.00,,,0.00,Wunderground v.1.15,2013-05-19 16:09:00,
2013-05-19 12:14:00,63.4,51.8,30.29,NW,325,0.0,1.0,66,0.00,,,0.00,Wunderground v.1.15,2013-05-19 16:14:00,
2013-05-19 12:19:00,64.2,54.2,30.29,SSE,164,0.0,0.0,70,0.00,,,0.00,Wunderground v.1.15,2013-05-19 16:19:00,
2013-05-19 12:24:00,65.2,55.2,30.29,SSE,158,0.0,0.0,70,0.00,,,0.00,Wunderground v.1.15,2013-05-19 16:24:00,
2013-05-19 12:29:00,66.3,56.2,30.28,SE,126,1.0,2.0,70,0.00,,,0.00,Wunderground v.1.15,2013-05-19 16:29:00,
2013-05-19 12:39:00,66.9,53.0,30.28,SW,220,1.0,1.0,61,0.00,,,0.00,Wunderground v.1.15,2013-05-19 16:39:00,
2013-05-19 12:44:00,67.3,53.4,30.27,SW,220,0.0,1.0,61,0.00,,,0.00,Wunderground v.1.15,2013-05-19 16:44:00,
2013-05-19 12:49:00,66.1,53.6,30.27,SW,220,0.0,0.0,64,0.00,,,0.00,Wunderground v.1.15,2013-05-19 16:49:00,
2013-05-19 12:54:00,66.4,53.0,30.27,East,82,0.0,0.0,62,0.00,,,0.00,Wunderground v.1.15,2013-05-19 16:54:00,
2013-05-19 12:59:00,66.0,53.9,30.26,East,79,0.0,0.0,65,0.00,,,0.00,Wunderground v.1.15,2013-05-19 16:59:00,
2013-05-19 13:04:00,66.4,52.5,30.26,WSW,253,0.0,0.0,61,0.00,,,0.00,Wunderground v.1.15,2013-05-19 17:04:00,
2013-05-19 13:14:00,67.4,53.0,30.26,West,272,1.0,2.0,60,0.00,,,0.00,Wunderground v.1.15,2013-05-19 17:14:00,
2013-05-19 13:19:00,67.1,53.6,30.26,NW,322,1.0,1.0,62,0.00,,,0.00,Wunderground v.1.15,2013-05-19 17:19:00,
2013-05-19 13:24:00,67.8,53.9,30.26,ESE,119,0.0,1.0,61,0.00,,,0.00,Wunderground v.1.15,2013-05-19 17:24:00,
2013-05-19 13:29:00,67.6,53.7,30.25,WSW,241,1.0,1.0,61,0.00,,,0.00,Wunderground v.1.15,2013-05-19 17:29:00,
2013-05-19 13:34:00,67.8,54.3,30.25,SSW,206,2.0,2.0,62,0.00,,,0.00,Wunderground v.1.15,2013-05-19 17:34:00,
2013-05-19 13:44:00,68.3,55.2,30.25,WSW,250,1.0,5.0,63,0.00,,,0.00,Wunderground v.1.15,2013-05-19 17:44:00,
2013-05-19 13:49:00,67.8,52.9,30.25,SW,223,2.0,2.0,59,0.00,,,0.00,Wunderground v.1.15,2013-05-19 17:49:00,
2013-05-19 13:54:00,67.3,53.8,30.25,SSE,162,3.0,3.0,62,0.00,,,0.00,Wunderground v.1.15,2013-05-19 17:54:00,
2013-05-19 13:59:00,67.4,53.0,30.24,WSW,241,2.0,3.0,60,0.00,,,0.00,Wunderground v.1.15,2013-05-19 17:59:00,
2013-05-19 14:04:00,67.1,54.1,30.24,South,186,1.0,3.0,63,0.00,,,0.00,Wunderground v.1.15,2013-05-19 18:04:00,
2013-05-19 14:14:00,66.3,52.9,30.24,West,260,1.0,1.0,62,0.00,,,0.00,Wunderground v.1.15,2013-05-19 18:14:00,
2013-05-19 14:19:00,66.1,52.7,30.24,SE,138,1.0,3.0,62,0.00,,,0.00,Wunderground v.1.15,2013-05-19 18:19:00,
2013-05-19 14:24:00,65.5,52.6,30.24,SSE,167,2.0,3.0,63,0.00,,,0.00,Wunderground v.1.15,2013-05-19 18:24:00,
2013-05-19 14:34:00,64.5,52.5,30.25,WSW,258,1.0,3.0,65,0.00,,,0.00,Wunderground v.1.15,2013-05-19 18:34:00,
2013-05-19 14:39:00,64.2,53.0,30.25,SW,226,1.0,2.0,67,0.00,,,0.00,Wunderground v.1.15,2013-05-19 18:39:00,
2013-05-19 14:44:00,63.4,52.7,30.25,SSW,200,2.0,2.0,68,0.00,,,0.00,Wunderground v.1.15,2013-05-19 18:44:00,
2013-05-19 14:54:00,62.1,51.4,30.24,SW,220,2.0,2.0,68,0.00,,,0.00,Wunderground v.1.15,2013-05-19 18:54:00,
2013-05-19 14:59:00,61.8,51.1,30.24,East,93,2.0,2.0,68,0.00,,,0.00,Wunderground v.1.15,2013-05-19 18:59:00,
2013-05-19 15:04:00,61.8,51.5,30.25,NW,312,1.0,2.0,69,0.00,,,0.00,Wunderground v.1.15,2013-05-19 19:04:00,
2013-05-19 15:09:00,61.6,51.7,30.25,North,6,0.0,0.0,70,0.00,,,0.00,Wunderground v.1.15,2013-05-19 19:09:00,
2013-05-19 15:14:00,61.3,51.4,30.25,North,0,0.0,0.0,70,0.00,,,0.00,Wunderground v.1.15,2013-05-19 19:14:00,
2013-05-19 15:24:00,61.8,51.9,30.25,SW,217,1.0,1.0,70,0.00,,,0.00,Wunderground v.1.15,2013-05-19 19:24:00,
2013-05-19 15:29:00,61.6,52.1,30.25,SW,236,1.0,1.0,71,0.00,,,0.00,Wunderground v.1.15,2013-05-19 19:29:00,
2013-05-19 15:34:00,61.5,51.6,30.24,SSW,198,1.0,1.0,70,0.00,,,0.00,Wunderground v.1.15,2013-05-19 19:34:00,
2013-05-19 15:39:00,60.5,51.4,30.24,NW,305,0.0,0.0,72,0.00,,,0.00,Wunderground v.1.15,2013-05-19 19:39:00,
2013-05-19 15:44:00,60.2,50.8,30.24,SW,227,1.0,3.0,71,0.00,,,0.00,Wunderground v.1.15,2013-05-19 19:44:00,
2013-05-19 15:49:00,59.9,50.8,30.25,SW,217,1.0,1.0,72,0.00,,,0.00,Wunderground v.1.15,2013-05-19 19:49:00,
2013-05-19 15:59:00,59.3,51.0,30.25,WSW,246,1.0,6.0,74,0.00,,,0.00,Wunderground v.1.15,2013-05-19 19:59:00,
2013-05-19 16:04:00,58.9,50.6,30.25,WSW,237,1.0,6.0,74,0.00,,,0.00,Wunderground v.1.15,2013-05-19 20:04:00,
2013-05-19 16:09:00,58.7,50.8,30.25,SSW,203,0.0,0.0,75,0.00,,,0.00,Wunderground v.1.15,2013-05-19 20:09:00,
2013-05-19 16:14:00,58.6,51.1,30.25,SE,138,0.0,0.0,76,0.00,,,0.00,Wunderground v.1.15,2013-05-19 20:14:00,
2013-05-19 16:19:00,58.3,50.8,30.25,WSW,241,1.0,1.0,76,0.00,,,0.00,Wunderground v.1.15,2013-05-19 20:19:00,
2013-05-19 16:29:00,57.6,50.1,30.25,SSW,209,1.0,1.0,76,0.00,,,0.00,Wunderground v.1.15,2013-05-19 20:29:00,
2013-05-19 16:34:00,57.6,50.1,30.25,WSW,253,0.0,1.0,76,0.00,,,0.00,Wunderground v.1.15,2013-05-19 20:34:00,
2013-05-19 16:39:00,57.5,50.3,30.25,WSW,240,0.0,0.0,77,0.00,,,0.00,Wunderground v.1.15,2013-05-19 20:39:00,
2013-05-19 16:44:00,57.2,50.1,30.25,SSW,193,1.0,5.0,77,0.00,,,0.00,Wunderground v.1.15,2013-05-19 20:44:00,
2013-05-19 16:49:00,56.7,49.9,30.25,WSW,256,1.0,1.0,78,0.00,,,0.00,Wunderground v.1.15,2013-05-19 20:49:00,
2013-05-19 16:54:00,56.6,49.8,30.25,SW,223,0.0,1.0,78,0.00,,,0.00,Wunderground v.1.15,2013-05-19 20:54:00,
2013-05-19 17:04:00,56.3,49.5,30.25,WSW,253,1.0,3.0,78,0.00,,,0.00,Wunderground v.1.15,2013-05-19 21:04:00,
2013-05-19 17:09:00,56.3,49.9,30.25,WSW,251,2.0,3.0,79,0.00,,,0.00,Wunderground v.1.15,2013-05-19 21:09:00,
2013-05-19 17:14:00,56.2,49.8,30.25,WSW,247,1.0,3.0,79,0.00,,,0.00,Wunderground v.1.15,2013-05-19 21:14:00,
2013-05-19 17:19:00,56.0,49.9,30.25,West,272,0.0,0.0,80,0.00,,,0.00,Wunderground v.1.15,2013-05-19 21:19:00,
2013-05-19 17:24:00,56.0,49.9,30.25,SW,220,0.0,0.0,80,0.00,,,0.00,Wunderground v.1.15,2013-05-19 21:24:00,
2013-05-19 17:34:00,55.7,49.6,30.24,WSW,254,1.0,5.0,80,0.00,,,0.00,Wunderground v.1.15,2013-05-19 21:34:00,
2013-05-19 17:39:00,55.7,49.6,30.24,NE,38,0.0,0.0,80,0.00,,,0.00,Wunderground v.1.15,2013-05-19 21:39:00,
2013-05-19 17:44:00,55.7,49.6,30.24,NNE,17,0.0,0.0,80,0.00,,,0.00,Wunderground v.1.15,2013-05-19 21:44:00,
2013-05-19 17:49:00,55.6,49.9,30.24,NNE,17,0.0,0.0,81,0.00,,,0.00,Wunderground v.1.15,2013-05-19 21:49:00,
2013-05-19 17:54:00,55.4,49.7,30.24,SW,217,0.0,0.0,81,0.00,,,0.00,Wunderground v.1.15,2013-05-19 21:54:00,
2013-05-19 17:59:00,55.4,49.7,30.24,SW,234,3.0,3.0,81,0.00,,,0.00,Wunderground v.1.15,2013-05-19 21:59:00,
2013-05-19 18:09:00,55.1,49.7,30.24,SW,230,0.0,0.0,82,0.00,,,0.00,Wunderground v.1.15,2013-05-19 22:09:00,
2013-05-19 18:14:00,55.1,49.7,30.24,SW,233,0.0,0.0,82,0.00,,,0.00,Wunderground v.1.15,2013-05-19 22:14:00,
2013-05-19 18:19:00,55.1,49.7,30.24,West,264,0.0,1.0,82,0.00,,,0.00,Wunderground v.1.15,2013-05-19 22:19:00,
2013-05-19 18:24:00,54.8,49.4,30.24,WSW,240,0.0,1.0,82,0.00,,,0.00,Wunderground v.1.15,2013-05-19 22:24:00,
2013-05-19 18:29:00,54.8,49.7,30.24,West,271,0.0,0.0,83,0.00,,,0.00,Wunderground v.1.15,2013-05-19 22:29:00,
2013-05-19 18:39:00,54.7,50.0,30.24,WSW,254,0.0,0.0,84,0.00,,,0.00,Wunderground v.1.15,2013-05-19 22:39:00,
2013-05-19 18:44:00,54.7,50.3,30.24,WSW,254,0.0,0.0,85,0.00,,,0.00,Wunderground v.1.15,2013-05-19 22:44:00,
2013-05-19 18:49:00,54.5,50.1,30.24,WSW,246,0.0,0.0,85,0.00,,,0.00,Wunderground v.1.15,2013-05-19 22:49:00,
2013-05-19 18:54:00,54.5,50.1,30.24,WSW,248,0.0,0.0,85,0.00,,,0.00,Wunderground v.1.15,2013-05-19 22:54:00,
2013-05-19 18:59:00,54.5,50.1,30.24,WSW,247,0.0,0.0,85,0.00,,,0.00,Wunderground v.1.15,2013-05-19 22:59:00,
2013-05-19 19:04:00,54.4,50.3,30.24,West,274,0.0,0.0,86,0.00,,,0.00,Wunderground v.1.15,2013-05-19 23:04:00,
2013-05-19 19:14:00,54.4,50.3,30.23,West,274,0.0,0.0,86,0.00,,,0.00,Wunderground v.1.15,2013-05-19 23:14:00,
2013-05-19 19:19:00,-999.9,-99.9,30.23,North,32767,-999.0,0.0,255,-99.99,,,0.00,Wunderground v.1.15,2013-05-19 23:19:00,
2013-05-19 19:24:00,-999.9,-99.9,30.23,North,32767,-999.0,0.0,255,-99.99,,,0.00,Wunderground v.1.15,2013-05-19 23:24:00,
2013-05-19 19:29:00,-999.9,-99.9,30.23,North,32767,-999.0,0.0,255,-99.99,,,0.00,Wunderground v.1.15,2013-05-19 23:29:00,
2013-05-19 19:34:00,-999.9,-99.9,30.23,North,32767,-999.0,0.0,255,-99.99,,,0.00,Wunderground v.1.15,2013-05-19 23:34:00,
2013-05-19 19:44:00,-999.9,-99.9,30.23,North,32767,-999.0,0.0,255,-99.99,,,0.00,Wunderground v.1.15,2013-05-19 23:44:00,
2013-05-19 19:49:00,-999.9,-99.9,30.23,North,32767,-999.0,0.0,255,-99.99,,,0.00,Wunderground v.1.15,2013-05-19 23:49:00,
2013-05-19 19:54:00,53.6,-99.9,30.23,WSW,247,0.0,0.0,255,0.00,,,0.00,Wunderground v.1.15,2013-05-19 23:54:00,
2013-05-19 19:59:00,53.6,50.7,30.23,WSW,247,0.0,0.0,90,0.00,,,0.00,Wunderground v.1.15,2013-05-19 23:59:00,
2013-05-19 20:04:00,53.5,50.9,30.23,WSW,247,0.0,0.0,91,0.00,,,0.00,Wunderground v.1.15,2013-05-20 00:04:00,
2013-05-19 20:09:00,53.5,50.9,30.23,WSW,247,0.0,0.0,91,0.00,,,0.00,Wunderground v.1.15,2013-05-20 00:09:00,
2013-05-19 20:19:00,53.3,51.0,30.23,WSW,247,0.0,0.0,92,0.00,,,0.00,Wunderground v.1.15,2013-05-20 00:19:00,
2013-05-19 20:24:00,53.3,51.0,30.23,WSW,247,0.0,0.0,92,0.00,,,0.00,Wunderground v.1.15,2013-05-20 00:24:00,
2013-05-19 20:29:00,53.3,51.0,30.23,WSW,247,0.0,0.0,92,0.00,,,0.00,Wunderground v.1.15,2013-05-20 00:29:00,
2013-05-19 20:34:00,53.2,50.9,30.23,WSW,247,0.0,0.0,92,0.00,,,0.00,Wunderground v.1.15,2013-05-20 00:34:00,
2013-05-19 20:39:00,53.2,50.9,30.23,WSW,247,0.0,0.0,92,0.00,,,0.00,Wunderground v.1.15,2013-05-20 00:39:00,
2013-05-19 20:49:00,53.2,51.2,30.22,WSW,247,0.0,0.0,93,0.00,,,0.00,Wunderground v.1.15,2013-05-20 00:49:00,
2013-05-19 20:54:00,53.1,51.1,30.22,WSW,247,0.0,0.0,93,0.00,,,0.00,Wunderground v.1.15,2013-05-20 00:54:00,
2013-05-19 20:59:00,53.1,51.1,30.23,WSW,247,0.0,0.0,93,0.00,,,0.00,Wunderground v.1.15,2013-05-20 00:59:00,
2013-05-19 21:09:00,53.1,51.1,30.23,WSW,247,0.0,0.0,93,0.00,,,0.01,Wunderground v.1.15,2013-05-20 01:09:00,
2013-05-19 21:14:00,53.1,51.1,30.23,WSW,247,0.0,0.0,93,0.00,,,0.01,Wunderground v.1.15,2013-05-20 01:14:00,
2013-05-19 21:24:00,52.9,50.9,30.23,WSW,247,0.0,0.0,93,0.00,,,0.02,Wunderground v.1.15,2013-05-20 01:24:00,
2013-05-19 21:29:00,52.9,50.9,30.23,WSW,247,0.0,0.0,93,0.00,,,0.02,Wunderground v.1.15,2013-05-20 01:29:00,
2013-05-19 21:34:00,52.9,50.9,30.22,WSW,247,0.0,0.0,93,0.00,,,0.02,Wunderground v.1.15,2013-05-20 01:34:00,
2013-05-19 21:39:00,52.9,51.2,30.22,WSW,247,0.0,0.0,94,0.04,,,0.02,Wunderground v.1.15,2013-05-20 01:39:00,
2013-05-19 21:44:00,52.9,51.2,30.22,WSW,247,0.0,0.0,94,0.08,,,0.04,Wunderground v.1.15,2013-05-20 01:44:00,
2013-05-19 21:49:00,52.9,51.2,30.23,WSW,247,0.0,0.0,94,0.08,,,0.04,Wunderground v.1.15,2013-05-20 01:49:00,
2013-05-19 21:59:00,52.8,51.1,30.23,WSW,247,0.0,0.0,94,0.00,,,0.04,Wunderground v.1.15,2013-05-20 01:59:00,
2013-05-19 22:04:00,52.8,51.1,30.23,WSW,247,0.0,0.0,94,0.00,,,0.04,Wunderground v.1.15,2013-05-20 02:04:00,
2013-05-19 22:09:00,52.8,51.1,30.23,WSW,247,0.0,0.0,94,0.00,,,0.04,Wunderground v.1.15,2013-05-20 02:09:00,
2013-05-19 22:14:00,52.8,51.1,30.23,WSW,247,0.0,0.0,94,0.00,,,0.04,Wunderground v.1.15,2013-05-20 02:14:00,
2013-05-19 22:19:00,52.8,51.1,30.22,WSW,247,0.0,0.0,94,0.00,,,0.05,Wunderground v.1.15,2013-05-20 02:19:00,
2013-05-19 22:29:00,52.8,51.4,30.22,WSW,247,0.0,0.0,95,0.00,,,0.05,Wunderground v.1.15,2013-05-20 02:29:00,
2013-05-19 22:34:00,52.8,51.4,30.22,WSW,247,0.0,0.0,95,0.00,,,0.06,Wunderground v.1.15,2013-05-20 02:34:00,
2013-05-19 22:39:00,52.8,51.4,30.22,WSW,247,0.0,0.0,95,0.00,,,0.06,Wunderground v.1.15,2013-05-20 02:39:00,
2013-05-19 22:44:00,52.8,51.4,30.22,WSW,247,0.0,0.0,95,0.00,,,0.06,Wunderground v.1.15,2013-05-20 02:44:00,
2013-05-19 22:49:00,52.8,51.4,30.22,WSW,247,0.0,0.0,95,0.00,,,0.06,Wunderground v.1.15,2013-05-20 02:49:00,
2013-05-19 22:54:00,52.6,51.2,30.22,WSW,247,0.0,0.0,95,0.00,,,0.06,Wunderground v.1.15,2013-05-20 02:54:00,
2013-05-19 23:04:00,52.6,51.2,30.21,WSW,247,0.0,0.0,95,0.00,,,0.06,Wunderground v.1.15,2013-05-20 03:04:00,
2013-05-19 23:09:00,52.5,51.4,30.21,WSW,247,0.0,0.0,96,0.00,,,0.07,Wunderground v.1.15,2013-05-20 03:09:00,
2013-05-19 23:14:00,52.5,51.4,30.21,WSW,247,0.0,0.0,96,0.00,,,0.07,Wunderground v.1.15,2013-05-20 03:14:00,
2013-05-19 23:19:00,52.5,51.4,30.21,WSW,247,0.0,0.0,96,0.08,,,0.08,Wunderground v.1.15,2013-05-20 03:19:00,
2013-05-19 23:24:00,52.5,51.4,30.21,WSW,247,0.0,0.0,96,0.06,,,0.08,Wunderground v.1.15,2013-05-20 03:24:00,
2013-05-19 23:34:00,52.3,51.2,30.20,WSW,247,0.0,0.0,96,0.04,,,0.09,Wunderground v.1.15,2013-05-20 03:34:00,
2013-05-19 23:39:00,52.3,51.2,30.20,SSW,203,0.0,0.0,96,0.04,,,0.09,Wunderground v.1.15,2013-05-20 03:39:00,
2013-05-19 23:44:00,52.3,51.2,30.20,SSW,203,0.0,0.0,96,0.06,,,0.10,Wunderground v.1.15,2013-05-20 03:44:00,
2013-05-19 23:49:00,52.3,51.2,30.19,SSW,203,0.0,0.0,96,0.06,,,0.10,Wunderground v.1.15,2013-05-20 03:49:00,
2013-05-19 23:54:00,52.3,51.2,30.19,SW,224,0.0,0.0,96,0.05,,,0.11,Wunderground v.1.15,2013-05-20 03:54:00,
2013-05-19 23:59:00,52.3,51.2,30.18,SW,224,0.0,0.0,96,0.10,,,0.12,Wunderground v.1.15,2013-05-20 03:59:00,